sensor_id;sensor_type;location;lat;lon;timestamp;P1;durP1;ratioP1;P2;durP2;ratioP2
38113;SDS011;23926;53.222;6.354;2023-05-07T00:01:42;19.17;;;14.65;;
38113;SDS011;23926;53.222;6.354;2023-05-07T00:04:07;20.40;;;15.32;;
38113;SDS011;23926;53.222;6.354;2023-05-07T00:06:33;18.25;;;13.57;;
38113;SDS011;23926;53.222;6.354;2023-05-07T00:08:58;18.27;;;14.20;;
38113;SDS011;23926;53.222;6.354;2023-05-07T00:11:25;23.02;;;15.88;;
38113;SDS011;23926;53.222;6.354;2023-05-07T00:13:51;18.92;;;14.70;;
38113;SDS011;23926;53.222;6.354;2023-05-07T00:16:17;20.23;;;15.30;;
38113;SDS011;23926;53.222;6.354;2023-05-07T00:18:42;20.42;;;15.43;;
38113;SDS011;23926;53.222;6.354;2023-05-07T00:21:07;24.83;;;14.98;;
38113;SDS011;23926;53.222;6.354;2023-05-07T00:23:33;20.20;;;15.13;;
38113;SDS011;23926;53.222;6.354;2023-05-07T00:25:58;18.05;;;14.23;;
38113;SDS011;23926;53.222;6.354;2023-05-07T00:28:24;19.55;;;14.45;;
38113;SDS011;23926;53.222;6.354;2023-05-07T00:30:49;22.30;;;16.33;;
38113;SDS011;23926;53.222;6.354;2023-05-07T00:33:15;18.00;;;14.45;;
38113;SDS011;23926;53.222;6.354;2023-05-07T00:35:41;24.48;;;17.17;;
38113;SDS011;23926;53.222;6.354;2023-05-07T00:38:07;24.35;;;17.23;;
38113;SDS011;23926;53.222;6.354;2023-05-07T00:40:33;23.48;;;15.40;;
38113;SDS011;23926;53.222;6.354;2023-05-07T00:42:58;24.00;;;17.25;;
38113;SDS011;23926;53.222;6.354;2023-05-07T00:45:28;22.55;;;15.98;;
38113;SDS011;23926;53.222;6.354;2023-05-07T00:47:57;23.63;;;17.48;;
38113;SDS011;23926;53.222;6.354;2023-05-07T00:50:25;25.33;;;19.58;;
38113;SDS011;23926;53.222;6.354;2023-05-07T00:52:51;21.60;;;15.38;;
38113;SDS011;23926;53.222;6.354;2023-05-07T00:55:16;22.63;;;16.17;;
38113;SDS011;23926;53.222;6.354;2023-05-07T00:57:42;26.23;;;18.67;;
38113;SDS011;23926;53.222;6.354;2023-05-07T01:00:09;25.75;;;17.60;;
38113;SDS011;23926;53.222;6.354;2023-05-07T01:02:37;21.10;;;15.48;;
38113;SDS011;23926;53.222;6.354;2023-05-07T01:05:05;23.10;;;16.77;;
38113;SDS011;23926;53.222;6.354;2023-05-07T01:07:34;19.10;;;14.63;;
38113;SDS011;23926;53.222;6.354;2023-05-07T01:10:01;23.83;;;16.08;;
38113;SDS011;23926;53.222;6.354;2023-05-07T01:12:29;23.95;;;17.00;;
38113;SDS011;23926;53.222;6.354;2023-05-07T01:14:56;24.30;;;18.05;;
38113;SDS011;23926;53.222;6.354;2023-05-07T01:17:22;20.80;;;15.68;;
38113;SDS011;23926;53.222;6.354;2023-05-07T01:19:48;23.08;;;17.15;;
38113;SDS011;23926;53.222;6.354;2023-05-07T01:22:14;23.77;;;16.45;;
38113;SDS011;23926;53.222;6.354;2023-05-07T01:24:41;23.55;;;15.60;;
38113;SDS011;23926;53.222;6.354;2023-05-07T01:27:06;22.40;;;15.98;;
38113;SDS011;23926;53.222;6.354;2023-05-07T01:29:32;25.33;;;17.92;;
38113;SDS011;23926;53.222;6.354;2023-05-07T01:31:57;21.42;;;15.77;;
38113;SDS011;23926;53.222;6.354;2023-05-07T01:34:25;21.60;;;16.45;;
38113;SDS011;23926;53.222;6.354;2023-05-07T01:36:52;23.25;;;16.20;;
38113;SDS011;23926;53.222;6.354;2023-05-07T01:39:20;25.05;;;17.38;;
38113;SDS011;23926;53.222;6.354;2023-05-07T01:41:46;27.35;;;18.90;;
38113;SDS011;23926;53.222;6.354;2023-05-07T01:44:12;27.00;;;17.42;;
38113;SDS011;23926;53.222;6.354;2023-05-07T01:46:38;24.92;;;18.00;;
38113;SDS011;23926;53.222;6.354;2023-05-07T01:49:04;23.63;;;17.08;;
38113;SDS011;23926;53.222;6.354;2023-05-07T01:51:29;24.23;;;18.02;;
38113;SDS011;23926;53.222;6.354;2023-05-07T01:53:56;31.63;;;19.17;;
38113;SDS011;23926;53.222;6.354;2023-05-07T01:56:23;24.38;;;18.00;;
38113;SDS011;23926;53.222;6.354;2023-05-07T01:58:50;26.67;;;18.25;;
38113;SDS011;23926;53.222;6.354;2023-05-07T02:01:16;25.52;;;17.80;;
38113;SDS011;23926;53.222;6.354;2023-05-07T02:03:42;23.92;;;17.95;;
38113;SDS011;23926;53.222;6.354;2023-05-07T02:06:08;26.50;;;18.25;;
38113;SDS011;23926;53.222;6.354;2023-05-07T02:08:33;24.88;;;17.13;;
38113;SDS011;23926;53.222;6.354;2023-05-07T02:10:58;28.63;;;19.40;;
38113;SDS011;23926;53.222;6.354;2023-05-07T02:13:24;23.98;;;17.77;;
38113;SDS011;23926;53.222;6.354;2023-05-07T02:15:50;26.75;;;18.15;;
38113;SDS011;23926;53.222;6.354;2023-05-07T02:18:16;28.40;;;19.02;;
38113;SDS011;23926;53.222;6.354;2023-05-07T02:20:42;28.55;;;19.88;;
38113;SDS011;23926;53.222;6.354;2023-05-07T02:23:07;27.55;;;19.05;;
38113;SDS011;23926;53.222;6.354;2023-05-07T02:25:33;28.90;;;20.60;;
38113;SDS011;23926;53.222;6.354;2023-05-07T02:27:58;29.85;;;21.02;;
38113;SDS011;23926;53.222;6.354;2023-05-07T02:30:24;29.13;;;20.42;;
38113;SDS011;23926;53.222;6.354;2023-05-07T02:32:50;28.63;;;19.70;;
38113;SDS011;23926;53.222;6.354;2023-05-07T02:35:16;28.00;;;21.13;;
38113;SDS011;23926;53.222;6.354;2023-05-07T02:37:41;25.05;;;19.13;;
38113;SDS011;23926;53.222;6.354;2023-05-07T02:40:07;28.02;;;19.75;;
38113;SDS011;23926;53.222;6.354;2023-05-07T02:42:33;30.58;;;20.10;;
38113;SDS011;23926;53.222;6.354;2023-05-07T02:44:58;26.38;;;19.65;;
38113;SDS011;23926;53.222;6.354;2023-05-07T02:47:24;29.55;;;21.02;;
38113;SDS011;23926;53.222;6.354;2023-05-07T02:49:52;29.33;;;20.92;;
38113;SDS011;23926;53.222;6.354;2023-05-07T02:52:18;32.00;;;20.77;;
38113;SDS011;23926;53.222;6.354;2023-05-07T02:54:43;29.52;;;19.70;;
38113;SDS011;23926;53.222;6.354;2023-05-07T02:57:09;31.30;;;22.00;;
38113;SDS011;23926;53.222;6.354;2023-05-07T02:59:34;28.75;;;20.02;;
38113;SDS011;23926;53.222;6.354;2023-05-07T03:01:59;31.50;;;21.58;;
38113;SDS011;23926;53.222;6.354;2023-05-07T03:04:25;30.98;;;20.88;;
38113;SDS011;23926;53.222;6.354;2023-05-07T03:06:50;33.08;;;20.77;;
38113;SDS011;23926;53.222;6.354;2023-05-07T03:09:16;33.58;;;22.65;;
38113;SDS011;23926;53.222;6.354;2023-05-07T03:11:41;30.38;;;21.42;;
38113;SDS011;23926;53.222;6.354;2023-05-07T03:14:07;30.75;;;21.60;;
38113;SDS011;23926;53.222;6.354;2023-05-07T03:16:32;32.05;;;21.00;;
38113;SDS011;23926;53.222;6.354;2023-05-07T03:18:58;28.92;;;18.92;;
38113;SDS011;23926;53.222;6.354;2023-05-07T03:21:23;33.42;;;20.35;;
38113;SDS011;23926;53.222;6.354;2023-05-07T03:23:49;30.67;;;20.35;;
38113;SDS011;23926;53.222;6.354;2023-05-07T03:26:14;32.70;;;20.98;;
38113;SDS011;23926;53.222;6.354;2023-05-07T03:28:39;32.70;;;21.23;;
38113;SDS011;23926;53.222;6.354;2023-05-07T03:31:05;35.22;;;23.77;;
38113;SDS011;23926;53.222;6.354;2023-05-07T03:33:32;32.25;;;21.92;;
38113;SDS011;23926;53.222;6.354;2023-05-07T03:35:58;31.15;;;21.30;;
38113;SDS011;23926;53.222;6.354;2023-05-07T03:38:23;32.90;;;21.70;;
38113;SDS011;23926;53.222;6.354;2023-05-07T03:40:49;32.90;;;22.65;;
38113;SDS011;23926;53.222;6.354;2023-05-07T03:43:14;30.80;;;21.60;;
38113;SDS011;23926;53.222;6.354;2023-05-07T03:45:40;35.75;;;22.80;;
38113;SDS011;23926;53.222;6.354;2023-05-07T03:48:05;36.65;;;23.95;;
38113;SDS011;23926;53.222;6.354;2023-05-07T03:50:30;36.85;;;23.23;;
38113;SDS011;23926;53.222;6.354;2023-05-07T03:52:56;39.58;;;23.92;;
38113;SDS011;23926;53.222;6.354;2023-05-07T03:55:21;31.92;;;21.98;;
38113;SDS011;23926;53.222;6.354;2023-05-07T03:57:47;32.05;;;21.83;;
38113;SDS011;23926;53.222;6.354;2023-05-07T04:00:12;33.20;;;22.15;;
38113;SDS011;23926;53.222;6.354;2023-05-07T04:02:38;34.80;;;23.08;;
38113;SDS011;23926;53.222;6.354;2023-05-07T04:05:03;35.58;;;21.85;;
38113;SDS011;23926;53.222;6.354;2023-05-07T04:07:30;35.25;;;23.17;;
38113;SDS011;23926;53.222;6.354;2023-05-07T04:09:55;36.42;;;23.67;;
38113;SDS011;23926;53.222;6.354;2023-05-07T04:12:20;36.38;;;23.17;;
38113;SDS011;23926;53.222;6.354;2023-05-07T04:14:46;34.95;;;23.92;;
38113;SDS011;23926;53.222;6.354;2023-05-07T04:17:11;34.28;;;23.50;;
38113;SDS011;23926;53.222;6.354;2023-05-07T04:19:37;32.42;;;21.80;;
38113;SDS011;23926;53.222;6.354;2023-05-07T04:22:02;32.72;;;21.65;;
38113;SDS011;23926;53.222;6.354;2023-05-07T04:24:30;35.67;;;22.30;;
38113;SDS011;23926;53.222;6.354;2023-05-07T04:26:57;34.08;;;23.33;;
38113;SDS011;23926;53.222;6.354;2023-05-07T04:29:23;35.38;;;23.92;;
38113;SDS011;23926;53.222;6.354;2023-05-07T04:31:49;38.75;;;23.27;;
38113;SDS011;23926;53.222;6.354;2023-05-07T04:34:14;30.42;;;21.45;;
38113;SDS011;23926;53.222;6.354;2023-05-07T04:36:40;31.35;;;22.45;;
38113;SDS011;23926;53.222;6.354;2023-05-07T04:39:05;36.25;;;23.45;;
38113;SDS011;23926;53.222;6.354;2023-05-07T04:41:31;37.70;;;23.77;;
38113;SDS011;23926;53.222;6.354;2023-05-07T04:43:57;39.65;;;24.10;;
38113;SDS011;23926;53.222;6.354;2023-05-07T04:46:23;33.40;;;23.17;;
38113;SDS011;23926;53.222;6.354;2023-05-07T04:48:49;34.38;;;22.63;;
38113;SDS011;23926;53.222;6.354;2023-05-07T04:51:15;39.03;;;26.10;;
38113;SDS011;23926;53.222;6.354;2023-05-07T04:53:40;35.38;;;22.55;;
38113;SDS011;23926;53.222;6.354;2023-05-07T04:56:06;33.47;;;21.75;;
38113;SDS011;23926;53.222;6.354;2023-05-07T04:58:31;36.45;;;22.83;;
38113;SDS011;23926;53.222;6.354;2023-05-07T05:00:58;35.50;;;23.73;;
38113;SDS011;23926;53.222;6.354;2023-05-07T05:03:23;33.13;;;22.08;;
38113;SDS011;23926;53.222;6.354;2023-05-07T05:05:49;32.50;;;21.50;;
38113;SDS011;23926;53.222;6.354;2023-05-07T05:08:16;32.80;;;22.45;;
38113;SDS011;23926;53.222;6.354;2023-05-07T05:10:42;30.52;;;21.45;;
38113;SDS011;23926;53.222;6.354;2023-05-07T05:13:08;33.38;;;22.67;;
38113;SDS011;23926;53.222;6.354;2023-05-07T05:15:34;31.80;;;22.55;;
38113;SDS011;23926;53.222;6.354;2023-05-07T05:17:59;31.38;;;22.45;;
38113;SDS011;23926;53.222;6.354;2023-05-07T05:20:25;42.90;;;26.70;;
38113;SDS011;23926;53.222;6.354;2023-05-07T05:22:50;31.33;;;20.75;;
38113;SDS011;23926;53.222;6.354;2023-05-07T05:25:16;33.38;;;21.35;;
38113;SDS011;23926;53.222;6.354;2023-05-07T05:27:41;30.38;;;21.23;;
38113;SDS011;23926;53.222;6.354;2023-05-07T05:30:07;33.67;;;20.17;;
38113;SDS011;23926;53.222;6.354;2023-05-07T05:32:32;30.65;;;21.25;;
38113;SDS011;23926;53.222;6.354;2023-05-07T05:34:58;33.00;;;23.77;;
38113;SDS011;23926;53.222;6.354;2023-05-07T05:37:23;32.03;;;21.55;;
38113;SDS011;23926;53.222;6.354;2023-05-07T05:39:50;31.02;;;20.52;;
38113;SDS011;23926;53.222;6.354;2023-05-07T05:42:15;33.90;;;21.75;;
38113;SDS011;23926;53.222;6.354;2023-05-07T05:44:40;30.23;;;20.10;;
38113;SDS011;23926;53.222;6.354;2023-05-07T05:47:06;30.38;;;20.38;;
38113;SDS011;23926;53.222;6.354;2023-05-07T05:49:31;29.48;;;21.42;;
38113;SDS011;23926;53.222;6.354;2023-05-07T05:51:57;33.65;;;21.85;;
38113;SDS011;23926;53.222;6.354;2023-05-07T05:54:22;30.88;;;20.73;;
38113;SDS011;23926;53.222;6.354;2023-05-07T05:56:48;36.28;;;21.63;;
38113;SDS011;23926;53.222;6.354;2023-05-07T05:59:14;30.17;;;20.90;;
38113;SDS011;23926;53.222;6.354;2023-05-07T06:01:39;30.92;;;19.20;;
38113;SDS011;23926;53.222;6.354;2023-05-07T06:04:05;29.13;;;20.63;;
38113;SDS011;23926;53.222;6.354;2023-05-07T06:06:30;29.23;;;20.77;;
38113;SDS011;23926;53.222;6.354;2023-05-07T06:08:57;31.67;;;20.77;;
38113;SDS011;23926;53.222;6.354;2023-05-07T06:11:22;31.42;;;20.90;;
38113;SDS011;23926;53.222;6.354;2023-05-07T06:13:48;39.25;;;26.25;;
38113;SDS011;23926;53.222;6.354;2023-05-07T06:16:13;28.33;;;19.30;;
38113;SDS011;23926;53.222;6.354;2023-05-07T06:18:40;29.02;;;20.67;;
38113;SDS011;23926;53.222;6.354;2023-05-07T06:21:05;25.55;;;17.65;;
38113;SDS011;23926;53.222;6.354;2023-05-07T06:23:30;27.83;;;19.80;;
38113;SDS011;23926;53.222;6.354;2023-05-07T06:25:56;30.10;;;20.02;;
38113;SDS011;23926;53.222;6.354;2023-05-07T06:28:21;27.35;;;19.00;;
38113;SDS011;23926;53.222;6.354;2023-05-07T06:30:47;29.45;;;19.67;;
38113;SDS011;23926;53.222;6.354;2023-05-07T06:33:14;27.02;;;18.88;;
38113;SDS011;23926;53.222;6.354;2023-05-07T06:35:40;26.60;;;19.50;;
38113;SDS011;23926;53.222;6.354;2023-05-07T06:38:05;24.80;;;17.85;;
38113;SDS011;23926;53.222;6.354;2023-05-07T06:40:31;27.02;;;18.30;;
38113;SDS011;23926;53.222;6.354;2023-05-07T06:42:56;28.08;;;19.60;;
38113;SDS011;23926;53.222;6.354;2023-05-07T06:45:22;30.67;;;20.20;;
38113;SDS011;23926;53.222;6.354;2023-05-07T06:47:47;26.70;;;18.20;;
38113;SDS011;23926;53.222;6.354;2023-05-07T06:50:12;26.58;;;18.15;;
38113;SDS011;23926;53.222;6.354;2023-05-07T06:52:38;28.65;;;19.45;;
38113;SDS011;23926;53.222;6.354;2023-05-07T06:55:04;27.08;;;19.55;;
38113;SDS011;23926;53.222;6.354;2023-05-07T06:57:30;27.58;;;19.23;;
38113;SDS011;23926;53.222;6.354;2023-05-07T06:59:55;29.33;;;19.92;;
38113;SDS011;23926;53.222;6.354;2023-05-07T07:02:20;29.25;;;20.10;;
38113;SDS011;23926;53.222;6.354;2023-05-07T07:04:46;26.10;;;18.67;;
38113;SDS011;23926;53.222;6.354;2023-05-07T07:07:11;28.20;;;19.27;;
38113;SDS011;23926;53.222;6.354;2023-05-07T07:09:37;29.95;;;19.45;;
38113;SDS011;23926;53.222;6.354;2023-05-07T07:12:02;30.10;;;21.17;;
38113;SDS011;23926;53.222;6.354;2023-05-07T07:14:28;32.45;;;19.38;;
38113;SDS011;23926;53.222;6.354;2023-05-07T07:16:53;28.67;;;21.10;;
38113;SDS011;23926;53.222;6.354;2023-05-07T07:19:18;27.80;;;19.92;;
38113;SDS011;23926;53.222;6.354;2023-05-07T07:21:45;28.13;;;19.90;;
38113;SDS011;23926;53.222;6.354;2023-05-07T07:24:10;27.70;;;20.08;;
38113;SDS011;23926;53.222;6.354;2023-05-07T07:26:36;30.13;;;19.83;;
38113;SDS011;23926;53.222;6.354;2023-05-07T07:29:01;25.45;;;18.98;;
38113;SDS011;23926;53.222;6.354;2023-05-07T07:31:27;28.70;;;19.80;;
38113;SDS011;23926;53.222;6.354;2023-05-07T07:33:52;27.67;;;19.77;;
38113;SDS011;23926;53.222;6.354;2023-05-07T07:36:17;25.83;;;19.33;;
38113;SDS011;23926;53.222;6.354;2023-05-07T07:38:43;30.90;;;19.45;;
38113;SDS011;23926;53.222;6.354;2023-05-07T07:41:08;29.35;;;20.63;;
38113;SDS011;23926;53.222;6.354;2023-05-07T07:43:34;31.73;;;19.60;;
38113;SDS011;23926;53.222;6.354;2023-05-07T07:46:00;29.15;;;20.00;;
38113;SDS011;23926;53.222;6.354;2023-05-07T07:48:26;30.63;;;21.40;;
38113;SDS011;23926;53.222;6.354;2023-05-07T07:50:51;29.80;;;20.02;;
38113;SDS011;23926;53.222;6.354;2023-05-07T07:53:17;25.55;;;17.45;;
38113;SDS011;23926;53.222;6.354;2023-05-07T07:55:42;29.95;;;19.83;;
38113;SDS011;23926;53.222;6.354;2023-05-07T07:58:07;30.92;;;21.27;;
38113;SDS011;23926;53.222;6.354;2023-05-07T08:00:33;31.83;;;21.95;;
38113;SDS011;23926;53.222;6.354;2023-05-07T08:02:58;30.73;;;19.48;;
38113;SDS011;23926;53.222;6.354;2023-05-07T08:05:24;30.73;;;20.45;;
38113;SDS011;23926;53.222;6.354;2023-05-07T08:07:50;29.92;;;20.63;;
38113;SDS011;23926;53.222;6.354;2023-05-07T08:10:17;31.20;;;20.90;;
38113;SDS011;23926;53.222;6.354;2023-05-07T08:12:47;31.30;;;20.85;;
38113;SDS011;23926;53.222;6.354;2023-05-07T08:15:15;30.95;;;19.75;;
38113;SDS011;23926;53.222;6.354;2023-05-07T08:17:41;30.38;;;20.33;;
38113;SDS011;23926;53.222;6.354;2023-05-07T08:20:07;31.55;;;21.38;;
38113;SDS011;23926;53.222;6.354;2023-05-07T08:22:33;30.10;;;20.85;;
38113;SDS011;23926;53.222;6.354;2023-05-07T08:24:59;28.73;;;20.40;;
38113;SDS011;23926;53.222;6.354;2023-05-07T08:27:25;31.23;;;21.10;;
38113;SDS011;23926;53.222;6.354;2023-05-07T08:29:50;34.20;;;23.08;;
38113;SDS011;23926;53.222;6.354;2023-05-07T08:32:16;32.22;;;21.35;;
38113;SDS011;23926;53.222;6.354;2023-05-07T08:34:41;29.30;;;20.05;;
38113;SDS011;23926;53.222;6.354;2023-05-07T08:37:07;31.55;;;20.05;;
38113;SDS011;23926;53.222;6.354;2023-05-07T08:39:32;30.60;;;21.10;;
38113;SDS011;23926;53.222;6.354;2023-05-07T08:41:58;34.10;;;23.05;;
38113;SDS011;23926;53.222;6.354;2023-05-07T08:44:27;35.60;;;23.58;;
38113;SDS011;23926;53.222;6.354;2023-05-07T08:46:56;34.50;;;22.25;;
38113;SDS011;23926;53.222;6.354;2023-05-07T08:49:23;34.53;;;23.17;;
38113;SDS011;23926;53.222;6.354;2023-05-07T08:51:48;36.38;;;22.80;;
38113;SDS011;23926;53.222;6.354;2023-05-07T08:54:17;35.70;;;24.08;;
38113;SDS011;23926;53.222;6.354;2023-05-07T08:56:44;34.35;;;22.63;;
38113;SDS011;23926;53.222;6.354;2023-05-07T08:59:10;34.38;;;23.10;;
38113;SDS011;23926;53.222;6.354;2023-05-07T09:01:35;35.30;;;22.92;;
38113;SDS011;23926;53.222;6.354;2023-05-07T09:04:01;30.52;;;22.80;;
38113;SDS011;23926;53.222;6.354;2023-05-07T09:06:27;37.08;;;24.92;;
38113;SDS011;23926;53.222;6.354;2023-05-07T09:08:52;34.30;;;23.55;;
38113;SDS011;23926;53.222;6.354;2023-05-07T09:11:19;34.47;;;23.02;;
38113;SDS011;23926;53.222;6.354;2023-05-07T09:13:46;32.88;;;22.42;;
38113;SDS011;23926;53.222;6.354;2023-05-07T09:16:12;40.15;;;22.75;;
38113;SDS011;23926;53.222;6.354;2023-05-07T09:18:41;32.58;;;22.40;;
38113;SDS011;23926;53.222;6.354;2023-05-07T09:21:11;32.05;;;22.00;;
38113;SDS011;23926;53.222;6.354;2023-05-07T09:23:39;32.75;;;21.55;;
38113;SDS011;23926;53.222;6.354;2023-05-07T09:26:05;33.45;;;23.02;;
38113;SDS011;23926;53.222;6.354;2023-05-07T09:28:37;32.22;;;22.08;;
38113;SDS011;23926;53.222;6.354;2023-05-07T09:31:05;29.10;;;20.65;;
38113;SDS011;23926;53.222;6.354;2023-05-07T09:33:30;30.92;;;19.30;;
38113;SDS011;23926;53.222;6.354;2023-05-07T09:35:56;31.00;;;21.10;;
38113;SDS011;23926;53.222;6.354;2023-05-07T09:38:21;30.02;;;20.50;;
38113;SDS011;23926;53.222;6.354;2023-05-07T09:40:47;31.10;;;21.65;;
38113;SDS011;23926;53.222;6.354;2023-05-07T09:43:13;32.55;;;21.67;;
38113;SDS011;23926;53.222;6.354;2023-05-07T09:45:39;31.90;;;22.67;;
38113;SDS011;23926;53.222;6.354;2023-05-07T09:48:04;29.08;;;19.60;;
38113;SDS011;23926;53.222;6.354;2023-05-07T09:50:49;28.67;;;20.10;;
38113;SDS011;23926;53.222;6.354;2023-05-07T09:53:19;26.73;;;19.05;;
38113;SDS011;23926;53.222;6.354;2023-05-07T09:55:46;28.23;;;20.30;;
38113;SDS011;23926;53.222;6.354;2023-05-07T09:58:12;28.73;;;20.65;;
38113;SDS011;23926;53.222;6.354;2023-05-07T10:00:37;25.70;;;19.67;;
38113;SDS011;23926;53.222;6.354;2023-05-07T10:03:05;30.23;;;20.23;;
38113;SDS011;23926;53.222;6.354;2023-05-07T10:05:31;31.80;;;20.63;;
38113;SDS011;23926;53.222;6.354;2023-05-07T10:07:57;28.08;;;19.25;;
38113;SDS011;23926;53.222;6.354;2023-05-07T10:10:23;26.95;;;19.13;;
38113;SDS011;23926;53.222;6.354;2023-05-07T10:12:49;28.27;;;19.70;;
38113;SDS011;23926;53.222;6.354;2023-05-07T10:15:16;28.50;;;19.58;;
38113;SDS011;23926;53.222;6.354;2023-05-07T10:17:42;29.42;;;20.15;;
38113;SDS011;23926;53.222;6.354;2023-05-07T10:20:07;29.77;;;20.70;;
38113;SDS011;23926;53.222;6.354;2023-05-07T10:22:38;26.80;;;19.70;;
38113;SDS011;23926;53.222;6.354;2023-05-07T10:25:41;27.10;;;19.25;;
38113;SDS011;23926;53.222;6.354;2023-05-07T10:28:04;25.02;;;19.40;;
38113;SDS011;23926;53.222;6.354;2023-05-07T10:30:54;28.05;;;19.52;;
38113;SDS011;23926;53.222;6.354;2023-05-07T10:33:21;26.35;;;18.42;;
38113;SDS011;23926;53.222;6.354;2023-05-07T10:35:51;26.92;;;18.92;;
38113;SDS011;23926;53.222;6.354;2023-05-07T10:38:20;28.45;;;20.15;;
38113;SDS011;23926;53.222;6.354;2023-05-07T10:40:46;27.95;;;19.25;;
38113;SDS011;23926;53.222;6.354;2023-05-07T10:43:11;30.73;;;21.77;;
38113;SDS011;23926;53.222;6.354;2023-05-07T10:45:36;26.38;;;19.85;;
38113;SDS011;23926;53.222;6.354;2023-05-07T10:48:12;29.80;;;17.92;;
38113;SDS011;23926;53.222;6.354;2023-05-07T10:50:45;26.05;;;19.20;;
38113;SDS011;23926;53.222;6.354;2023-05-07T10:55:48;27.70;;;20.27;;
38113;SDS011;23926;53.222;6.354;2023-05-07T11:00:47;27.73;;;19.48;;
38113;SDS011;23926;53.222;6.354;2023-05-07T11:03:16;25.20;;;18.25;;
38113;SDS011;23926;53.222;6.354;2023-05-07T11:05:42;25.75;;;18.58;;
38113;SDS011;23926;53.222;6.354;2023-05-07T11:08:11;28.70;;;19.88;;
38113;SDS011;23926;53.222;6.354;2023-05-07T11:10:52;29.83;;;20.98;;
38113;SDS011;23926;53.222;6.354;2023-05-07T11:16:22;24.05;;;18.35;;
38113;SDS011;23926;53.222;6.354;2023-05-07T11:18:49;25.60;;;18.52;;
38113;SDS011;23926;53.222;6.354;2023-05-07T11:23:59;25.35;;;18.48;;
38113;SDS011;23926;53.222;6.354;2023-05-07T11:26:27;23.85;;;17.85;;
38113;SDS011;23926;53.222;6.354;2023-05-07T11:28:54;27.17;;;19.73;;
38113;SDS011;23926;53.222;6.354;2023-05-07T11:31:26;26.27;;;18.85;;
38113;SDS011;23926;53.222;6.354;2023-05-07T11:36:20;24.65;;;19.08;;
38113;SDS011;23926;53.222;6.354;2023-05-07T11:38:47;28.35;;;19.20;;
38113;SDS011;23926;53.222;6.354;2023-05-07T11:41:12;24.42;;;18.67;;
38113;SDS011;23926;53.222;6.354;2023-05-07T11:43:38;26.58;;;18.25;;
38113;SDS011;23926;53.222;6.354;2023-05-07T11:46:11;24.70;;;18.08;;
38113;SDS011;23926;53.222;6.354;2023-05-07T11:48:39;22.90;;;17.83;;
38113;SDS011;23926;53.222;6.354;2023-05-07T11:51:05;24.98;;;18.88;;
38113;SDS011;23926;53.222;6.354;2023-05-07T11:53:41;23.52;;;17.85;;
38113;SDS011;23926;53.222;6.354;2023-05-07T11:56:11;22.60;;;18.05;;
38113;SDS011;23926;53.222;6.354;2023-05-07T11:58:40;23.20;;;18.40;;
38113;SDS011;23926;53.222;6.354;2023-05-07T12:01:10;23.73;;;18.30;;
38113;SDS011;23926;53.222;6.354;2023-05-07T12:03:37;24.92;;;19.10;;
38113;SDS011;23926;53.222;6.354;2023-05-07T12:06:07;22.95;;;18.02;;
38113;SDS011;23926;53.222;6.354;2023-05-07T12:08:35;24.00;;;18.38;;
38113;SDS011;23926;53.222;6.354;2023-05-07T12:11:02;21.42;;;17.67;;
38113;SDS011;23926;53.222;6.354;2023-05-07T12:13:28;24.27;;;19.00;;
38113;SDS011;23926;53.222;6.354;2023-05-07T12:15:55;23.85;;;17.45;;
38113;SDS011;23926;53.222;6.354;2023-05-07T12:18:21;22.88;;;16.80;;
38113;SDS011;23926;53.222;6.354;2023-05-07T12:20:48;23.13;;;18.83;;
38113;SDS011;23926;53.222;6.354;2023-05-07T12:23:15;20.00;;;16.58;;
38113;SDS011;23926;53.222;6.354;2023-05-07T12:25:41;21.45;;;17.55;;
38113;SDS011;23926;53.222;6.354;2023-05-07T12:28:13;21.02;;;16.20;;
38113;SDS011;23926;53.222;6.354;2023-05-07T12:30:40;24.20;;;18.08;;
38113;SDS011;23926;53.222;6.354;2023-05-07T12:33:08;21.35;;;18.33;;
38113;SDS011;23926;53.222;6.354;2023-05-07T12:35:37;22.63;;;18.40;;
38113;SDS011;23926;53.222;6.354;2023-05-07T12:38:08;24.42;;;18.75;;
38113;SDS011;23926;53.222;6.354;2023-05-07T12:40:35;20.92;;;17.80;;
38113;SDS011;23926;53.222;6.354;2023-05-07T12:43:02;23.77;;;19.38;;
38113;SDS011;23926;53.222;6.354;2023-05-07T12:45:27;22.55;;;18.77;;
38113;SDS011;23926;53.222;6.354;2023-05-07T12:47:52;20.42;;;18.20;;
38113;SDS011;23926;53.222;6.354;2023-05-07T12:50:18;25.20;;;17.67;;
38113;SDS011;23926;53.222;6.354;2023-05-07T12:52:44;23.15;;;19.77;;
38113;SDS011;23926;53.222;6.354;2023-05-07T12:55:12;23.10;;;18.52;;
38113;SDS011;23926;53.222;6.354;2023-05-07T12:57:43;21.52;;;18.80;;
38113;SDS011;23926;53.222;6.354;2023-05-07T13:00:13;20.40;;;17.30;;
38113;SDS011;23926;53.222;6.354;2023-05-07T13:02:40;22.42;;;17.80;;
38113;SDS011;23926;53.222;6.354;2023-05-07T13:05:09;23.58;;;17.60;;
38113;SDS011;23926;53.222;6.354;2023-05-07T13:07:34;19.65;;;17.55;;
38113;SDS011;23926;53.222;6.354;2023-05-07T13:10:00;20.27;;;17.58;;
38113;SDS011;23926;53.222;6.354;2023-05-07T13:12:25;21.88;;;17.17;;
38113;SDS011;23926;53.222;6.354;2023-05-07T13:14:51;22.10;;;18.45;;
38113;SDS011;23926;53.222;6.354;2023-05-07T13:17:16;21.92;;;18.58;;
38113;SDS011;23926;53.222;6.354;2023-05-07T13:19:43;19.08;;;16.42;;
38113;SDS011;23926;53.222;6.354;2023-05-07T13:22:08;20.80;;;17.17;;
38113;SDS011;23926;53.222;6.354;2023-05-07T13:24:34;20.25;;;16.60;;
38113;SDS011;23926;53.222;6.354;2023-05-07T13:26:59;22.63;;;16.73;;
38113;SDS011;23926;53.222;6.354;2023-05-07T13:29:26;22.27;;;17.92;;
38113;SDS011;23926;53.222;6.354;2023-05-07T13:31:55;20.30;;;16.92;;
38113;SDS011;23926;53.222;6.354;2023-05-07T13:34:21;20.23;;;17.50;;
38113;SDS011;23926;53.222;6.354;2023-05-07T13:36:47;19.48;;;17.38;;
38113;SDS011;23926;53.222;6.354;2023-05-07T13:39:12;19.58;;;16.80;;
38113;SDS011;23926;53.222;6.354;2023-05-07T13:41:37;19.33;;;17.25;;
38113;SDS011;23926;53.222;6.354;2023-05-07T13:44:03;18.38;;;16.40;;
38113;SDS011;23926;53.222;6.354;2023-05-07T13:46:29;20.88;;;16.88;;
38113;SDS011;23926;53.222;6.354;2023-05-07T13:48:55;19.67;;;17.17;;
38113;SDS011;23926;53.222;6.354;2023-05-07T13:51:20;19.35;;;15.65;;
38113;SDS011;23926;53.222;6.354;2023-05-07T13:53:46;18.73;;;16.73;;
38113;SDS011;23926;53.222;6.354;2023-05-07T13:56:12;19.20;;;17.17;;
38113;SDS011;23926;53.222;6.354;2023-05-07T13:58:37;19.35;;;16.80;;
38113;SDS011;23926;53.222;6.354;2023-05-07T14:01:03;19.88;;;16.98;;
38113;SDS011;23926;53.222;6.354;2023-05-07T14:03:28;18.83;;;16.75;;
38113;SDS011;23926;53.222;6.354;2023-05-07T14:05:56;18.27;;;15.20;;
38113;SDS011;23926;53.222;6.354;2023-05-07T14:08:22;18.70;;;16.20;;
38113;SDS011;23926;53.222;6.354;2023-05-07T14:10:48;20.48;;;16.63;;
38113;SDS011;23926;53.222;6.354;2023-05-07T14:13:13;23.08;;;16.52;;
38113;SDS011;23926;53.222;6.354;2023-05-07T14:15:39;19.13;;;16.05;;
38113;SDS011;23926;53.222;6.354;2023-05-07T14:18:05;17.77;;;15.85;;
38113;SDS011;23926;53.222;6.354;2023-05-07T14:20:30;19.27;;;16.15;;
38113;SDS011;23926;53.222;6.354;2023-05-07T14:22:56;17.13;;;15.32;;
38113;SDS011;23926;53.222;6.354;2023-05-07T14:25:21;17.50;;;15.57;;
38113;SDS011;23926;53.222;6.354;2023-05-07T14:27:47;18.80;;;16.00;;
38113;SDS011;23926;53.222;6.354;2023-05-07T14:30:12;17.60;;;15.73;;